Time;durP1;ratioP1;P1;durP2;ratioP2;P2;SDS_P1;SDS_P2;PMS_P1;PMS_P2;Temp;Humidity;BMP_temperature;BMP_pressure;BME280_temperature;BME280_humidity;BME280_pressure;Samples;Min_cycle;Max_cycle;Signal;HPM_P1;HPM_P2
2022/12/23 00:01:24;;;;;;;12.20;4.13;;;;;;;10.82;76.63;100291.56;5100986;28;20060;-68
2022/12/23 00:03:52;;;;;;;12.38;5.13;;;;;;;10.74;76.80;100277.41;5096374;28;20056;-69
2022/12/23 00:06:20;;;;;;;19.00;6.32;;;;;;;10.82;77.16;100286.16;5102495;28;20104;-68
2022/12/23 00:08:48;;;;;;;17.42;5.05;;;;;;;10.79;76.99;100276.72;5106619;28;20055;-68
2022/12/23 00:11:19;;;;;;;15.13;4.97;;;;;;;10.80;77.11;100289.09;5102713;28;20075;-69
2022/12/23 00:16:35;;;;;;;19.33;6.30;;;;;;;10.80;77.12;100293.66;5107206;28;20068;-68
2022/12/23 00:19:03;;;;;;;13.40;4.78;;;;;;;10.80;77.16;100297.16;5099588;28;20048;-69
2022/12/23 00:21:31;;;;;;;12.23;4.80;;;;;;;10.79;77.03;100303.59;5106879;28;20080;-69
2022/12/23 00:23:58;;;;;;;12.57;4.35;;;;;;;10.80;76.73;100299.03;5104044;28;20058;-68
2022/12/23 00:26:27;;;;;;;15.45;4.90;;;;;;;10.80;77.25;100307.09;5098511;28;20083;-67
2022/12/23 00:28:57;;;;;;;11.75;5.20;;;;;;;10.80;77.36;100310.59;5101727;28;20139;-68
2022/12/23 00:31:25;;;;;;;13.95;5.07;;;;;;;10.81;77.32;100316.78;5109319;28;20051;-68
2022/12/23 00:33:54;;;;;;;15.40;5.13;;;;;;;10.81;77.18;100316.78;5105696;28;20044;-68
2022/12/23 00:36:26;;;;;;;11.77;5.30;;;;;;;10.81;77.30;100317.63;5110067;28;20048;-68
2022/12/23 00:44:26;;;;;;;10.57;6.05;;;;;;;10.82;77.45;100329.19;5109253;28;20107;-68
2022/12/23 00:46:54;;;;;;;13.20;6.05;;;;;;;10.77;77.51;100329.88;5101937;28;20044;-68
2022/12/23 00:52:10;;;;;;;13.10;5.82;;;;;;;10.81;77.41;100333.75;5116573;28;20056;-68
2022/12/23 00:54:38;;;;;;;16.42;6.15;;;;;;;10.81;77.41;100339.13;5111631;28;20146;-68
2022/12/23 00:57:06;;;;;;;18.42;6.20;;;;;;;10.83;77.49;100346.94;5097657;28;20072;-68
2022/12/23 00:59:34;;;;;;;12.27;5.75;;;;;;;10.83;77.12;100346.94;5096284;28;20067;-68
2022/12/23 01:07:35;;;;;;;17.17;5.75;;;;;;;10.81;76.97;100347.19;5104909;28;20055;-69
2022/12/23 01:10:03;;;;;;;16.55;6.53;;;;;;;10.79;77.27;100351.16;5104086;28;20044;-67
2022/12/23 01:12:30;;;;;;;12.73;6.53;;;;;;;10.81;77.35;100363.31;5105560;28;20108;-68
2022/12/23 01:14:58;;;;;;;11.68;5.93;;;;;;;10.81;77.19;100365.19;5106889;28;20527;-68
2022/12/23 01:17:26;;;;;;;16.60;6.43;;;;;;;10.80;77.43;100361.66;5099481;28;20040;-68
2022/12/23 01:19:55;;;;;;;14.90;6.10;;;;;;;10.79;77.33;100365.41;5103921;28;20139;-68
2022/12/23 01:22:23;;;;;;;12.23;6.00;;;;;;;10.80;77.18;100358.16;5101684;28;20072;-67
2022/12/23 01:24:50;;;;;;;14.88;7.72;;;;;;;10.79;77.53;100353.84;5105369;28;20067;-68
2022/12/23 01:27:18;;;;;;;18.00;7.10;;;;;;;10.70;77.29;100335.38;5104225;28;20063;-69
2022/12/23 01:29:46;;;;;;;12.85;6.97;;;;;;;10.77;77.19;100351.38;5107452;28;20496;-69
2022/12/23 01:32:14;;;;;;;11.35;6.43;;;;;;;10.77;77.21;100359.47;5101960;28;20664;-67
2022/12/23 01:34:41;;;;;;;14.25;7.10;;;;;;;10.77;77.18;100362.13;5098083;28;20086;-67
2022/12/23 01:37:10;;;;;;;15.95;7.22;;;;;;;10.75;77.28;100359.69;5104377;28;20070;-68
2022/12/23 01:39:38;;;;;;;13.90;6.35;;;;;;;10.76;77.29;100360.50;5094062;28;20056;-68
2022/12/23 01:44:58;;;;;;;11.40;6.50;;;;;;;10.76;77.17;100363.19;5096112;28;20123;-68
2022/12/23 01:47:32;;;;;;;14.38;6.95;;;;;;;10.76;77.46;100363.19;5099690;28;20048;-67
2022/12/23 01:50:06;;;;;;;15.88;7.00;;;;;;;10.76;77.26;100371.25;5102163;28;20111;-68
2022/12/23 01:52:42;;;;;;;13.65;6.47;;;;;;;10.76;77.01;100372.06;5101729;28;20093;-68
2022/12/23 01:55:11;;;;;;;13.75;6.63;;;;;;;10.73;77.36;100369.03;5090948;28;20047;-68
2022/12/23 01:57:41;;;;;;;12.70;7.47;;;;;;;10.76;77.12;100379.31;5105635;28;20127;-68
2022/12/23 02:05:44;;;;;;;15.07;7.60;;;;;;;10.74;77.04;100395.69;5104108;28;20052;-68
2022/12/23 02:11:23;;;;;;;13.43;8.07;;;;;;;10.74;77.46;100402.94;5099420;28;20058;-68
2022/12/23 02:17:00;;;;;;;15.32;8.77;;;;;;;10.75;77.51;100405.38;5100986;28;20075;-68
2022/12/23 02:19:58;;;;;;;13.57;8.07;;;;;;;10.76;77.71;100403.50;5098404;28;20104;-68
2022/12/23 02:22:43;;;;;;;15.80;9.00;;;;;;;10.75;77.58;100391.13;5097724;28;20043;-67
2022/12/23 02:25:44;;;;;;;16.00;9.25;;;;;;;10.75;77.65;100400.00;5105946;28;20342;-68
2022/12/23 02:28:44;;;;;;;12.70;8.85;;;;;;;10.75;77.62;100399.19;5098717;28;20044;-68
2022/12/23 02:31:24;;;;;;;15.73;9.45;;;;;;;10.74;77.74;100403.75;5101126;28;20048;-68
2022/12/23 02:33:59;;;;;;;18.02;9.95;;;;;;;10.75;77.71;100407.25;5096270;28;20058;-69
2022/12/23 02:36:38;;;;;;;15.43;9.25;;;;;;;10.74;77.98;100411.00;5097724;28;20127;-68
2022/12/23 02:39:09;;;;;;;15.40;10.80;;;;;;;10.74;78.06;100427.94;5102428;28;20044;-68
2022/12/23 02:41:47;;;;;;;16.13;10.05;;;;;;;10.71;77.88;100433.78;5102125;28;20051;-68
2022/12/23 02:44:21;;;;;;;13.02;9.93;;;;;;;10.73;77.68;100450.50;5095095;28;20079;-68
2022/12/23 02:46:56;;;;;;;13.70;8.60;;;;;;;10.75;77.64;100458.31;5101454;28;20044;-68
2022/12/23 02:49:28;;;;;;;15.38;9.65;;;;;;;10.72;77.45;100459.59;5103267;28;20108;-67
2022/12/23 02:51:59;;;;;;;14.35;9.40;;;;;;;10.74;77.58;100467.44;5099047;28;20036;-68
2022/12/23 02:54:30;;;;;;;14.07;10.00;;;;;;;10.74;77.88;100464.75;5102658;28;20056;-68
2022/12/23 02:57:00;;;;;;;16.77;10.00;;;;;;;10.74;77.72;100465.56;5101628;28;20047;-69
2022/12/23 02:59:34;;;;;;;16.77;10.57;;;;;;;10.74;77.67;100462.06;5095739;28;20477;-68
2022/12/23 03:02:03;;;;;;;18.38;11.15;;;;;;;10.73;77.72;100455.88;5101437;28;20044;-67
2022/12/23 03:04:31;;;;;;;12.98;10.20;;;;;;;10.73;77.85;100466.63;5102920;28;20075;-69
2022/12/23 03:06:59;;;;;;;15.73;11.15;;;;;;;10.72;77.85;100459.59;5102899;28;20128;-69
2022/12/23 03:09:44;;;;;;;14.93;10.07;;;;;;;10.72;77.66;100472.22;5089562;28;20052;-70
2022/12/23 03:12:22;;;;;;;14.82;10.90;;;;;;;10.72;77.73;100467.66;5100999;28;20048;-69
2022/12/23 03:15:08;;;;;;;13.25;10.68;;;;;;;10.71;77.65;100471.41;5104204;28;20073;-68
2022/12/23 03:17:48;;;;;;;15.70;10.48;;;;;;;10.72;77.88;100480.28;5101721;28;20032;-69
2022/12/23 03:20:25;;;;;;;13.57;10.63;;;;;;;10.71;77.86;100468.72;5102550;28;20504;-69
2022/12/23 03:23:01;;;;;;;16.83;11.30;;;;;;;10.69;77.91;100475.38;5099600;28;20090;-67
2022/12/23 03:25:35;;;;;;;19.33;12.07;;;;;;;10.70;77.90;100475.13;5105292;28;20083;-68
2022/12/23 03:28:11;;;;;;;15.70;12.05;;;;;;;10.68;77.85;100465.69;5094100;28;20112;-68
2022/12/23 03:30:42;;;;;;;15.90;11.20;;;;;;;10.69;77.78;100460.06;5096547;28;20044;-67
2022/12/23 03:33:15;;;;;;;16.33;11.07;;;;;;;10.69;77.56;100461.94;5098146;28;20048;-67
2022/12/23 03:35:49;;;;;;;16.98;11.15;;;;;;;10.69;77.67;100462.75;5103205;28;20388;-68
2022/12/23 03:38:19;;;;;;;15.65;11.23;;;;;;;10.70;77.68;100460.88;5096537;28;20132;-68
2022/12/23 03:40:51;;;;;;;16.13;11.43;;;;;;;10.69;77.92;100468.13;5102788;28;20101;-68
2022/12/23 03:43:23;;;;;;;16.42;12.20;;;;;;;10.69;77.96;100472.69;5093972;28;20039;-68
2022/12/23 03:45:56;;;;;;;13.75;11.02;;;;;;;10.70;77.69;100460.88;5093941;28;20349;-68
2022/12/23 03:48:33;;;;;;;17.48;11.73;;;;;;;10.69;77.83;100460.06;5103354;28;20071;-69
2022/12/23 03:51:06;;;;;;;18.65;12.00;;;;;;;10.69;78.07;100460.06;5091988;28;20512;-69
2022/12/23 03:53:37;;;;;;;17.50;12.13;;;;;;;10.69;78.01;100453.88;5098966;28;20067;-69
2022/12/23 03:56:10;;;;;;;16.33;11.40;;;;;;;10.69;78.04;100464.63;5098064;28;20074;-69
2022/12/23 03:58:44;;;;;;;14.02;11.13;;;;;;;10.70;77.93;100466.25;5099738;28;20040;-68
2022/12/23 04:01:19;;;;;;;18.48;13.00;;;;;;;10.70;77.81;100455.50;5102141;28;20044;-69
2022/12/23 04:03:57;;;;;;;15.85;11.80;;;;;;;10.70;77.99;100466.25;5101709;28;20523;-69
2022/12/23 04:06:29;;;;;;;15.63;11.80;;;;;;;10.71;78.23;100470.59;5104225;28;20052;-69
2022/12/23 04:08:58;;;;;;;14.77;11.65;;;;;;;10.71;77.96;100473.28;5095576;28;20080;-69
2022/12/23 04:11:26;;;;;;;21.08;11.68;;;;;;;10.70;77.89;100477.84;5104223;28;20051;-69
2022/12/23 04:13:54;;;;;;;16.63;13.13;;;;;;;10.70;78.11;100480.53;5102399;28;20060;-69
2022/12/23 04:16:22;;;;;;;14.77;11.05;;;;;;;10.71;77.88;100481.34;5104818;28;20044;-69
2022/12/23 04:18:51;;;;;;;15.52;11.27;;;;;;;10.70;78.20;100485.06;5099424;28;20036;-68
2022/12/23 04:21:19;;;;;;;15.23;11.93;;;;;;;10.70;78.10;100485.91;5106007;28;20052;-68
2022/12/23 04:23:47;;;;;;;14.55;11.27;;;;;;;10.63;78.20;100479.81;5101249;28;20055;-68
2022/12/23 04:26:14;;;;;;;16.52;11.73;;;;;;;10.69;78.39;100495.00;5104181;28;20052;-68
2022/12/23 04:28:42;;;;;;;16.35;11.98;;;;;;;10.69;78.27;100494.19;5096567;28;20471;-68
2022/12/23 04:31:10;;;;;;;18.05;11.88;;;;;;;10.69;78.03;100494.19;5111264;28;20339;-67
2022/12/23 04:33:37;;;;;;;17.58;12.80;;;;;;;10.68;78.09;100500.63;5103185;28;20076;-69
2022/12/23 04:36:07;;;;;;;16.65;12.32;;;;;;;10.69;78.14;100504.94;5118240;28;20126;-69
2022/12/23 04:38:34;;;;;;;15.32;11.85;;;;;;;10.68;77.99;100500.63;5103161;28;20058;-68
2022/12/23 04:41:02;;;;;;;14.27;11.63;;;;;;;10.69;77.94;100504.94;5103217;28;20071;-69
2022/12/23 04:43:30;;;;;;;13.60;10.93;;;;;;;10.69;78.04;100499.56;5110946;28;20063;-68
2022/12/23 04:45:58;;;;;;;15.50;11.82;;;;;;;10.68;77.82;100500.63;5108410;28;20040;-68
2022/12/23 04:48:25;;;;;;;15.73;12.05;;;;;;;10.68;78.05;100489.88;5102139;28;20100;-68
2022/12/23 04:50:53;;;;;;;15.73;12.38;;;;;;;10.69;78.15;100496.88;5106460;28;20528;-68
2022/12/23 04:53:22;;;;;;;12.80;10.75;;;;;;;10.67;77.80;100493.59;5104871;28;20054;-68
2022/12/23 04:55:50;;;;;;;15.20;11.05;;;;;;;10.67;77.64;100493.59;5099524;28;20139;-67
2022/12/23 04:58:20;;;;;;;12.38;10.80;;;;;;;10.66;77.68;100484.72;5109287;28;20075;-68
2022/12/23 05:00:48;;;;;;;11.70;9.90;;;;;;;10.66;77.65;100482.03;5110798;28;20059;-68
2022/12/23 05:03:16;;;;;;;12.07;10.18;;;;;;;10.66;77.51;100475.84;5101579;28;20073;-67
2022/12/23 05:05:44;;;;;;;12.98;11.02;;;;;;;10.66;77.61;100478.53;5103965;28;20056;-68
2022/12/23 05:08:12;;;;;;;13.93;11.05;;;;;;;10.65;77.80;100483.06;5104878;28;20056;-68
2022/12/23 05:10:41;;;;;;;16.73;12.45;;;;;;;10.68;77.64;100484.50;5100559;28;20064;-68
2022/12/23 05:13:09;;;;;;;14.57;11.15;;;;;;;10.65;77.34;100483.06;5101464;28;20047;-67
2022/12/23 05:15:36;;;;;;;15.23;12.15;;;;;;;10.66;77.87;100486.59;5096869;28;20072;-67
2022/12/23 05:18:04;;;;;;;17.13;12.27;;;;;;;10.65;77.73;100485.78;5107643;28;20051;-68
2022/12/23 05:20:32;;;;;;;16.55;11.23;;;;;;;10.64;77.62;100492.19;5104204;28;20044;-68
2022/12/23 05:23:00;;;;;;;13.98;10.75;;;;;;;10.64;77.67;100502.13;5098021;28;20055;-68
2022/12/23 05:25:27;;;;;;;16.75;12.00;;;;;;;10.64;77.79;100507.50;5109867;28;20456;-68
2022/12/23 05:27:56;;;;;;;17.25;12.02;;;;;;;10.62;77.64;100521.16;5096410;28;20045;-67
2022/12/23 05:30:24;;;;;;;18.20;12.88;;;;;;;10.63;77.63;100521.97;5108706;28;20048;-68
2022/12/23 05:32:53;;;;;;;15.75;12.43;;;;;;;10.63;77.76;100521.97;5096201;28;20078;-68
2022/12/23 05:35:21;;;;;;;14.43;11.10;;;;;;;10.64;77.95;100531.69;5102427;28;20176;-68
2022/12/23 05:37:49;;;;;;;15.32;11.43;;;;;;;10.63;77.71;100522.81;5111858;28;20104;-68
2022/12/23 05:40:17;;;;;;;16.30;13.30;;;;;;;10.64;77.85;100537.06;5105857;28;20044;-68
2022/12/23 05:42:52;;;;;;;15.48;11.75;;;;;;;10.65;77.89;100547.56;5106195;28;20046;-67
2022/12/23 05:45:21;;;;;;;21.60;13.02;;;;;;;10.64;77.60;100542.44;5103507;28;20048;-67
2022/12/23 05:47:49;;;;;;;16.38;11.65;;;;;;;10.65;77.81;100539.50;5117747;28;20079;-68
2022/12/23 05:50:17;;;;;;;17.55;12.73;;;;;;;10.65;77.80;100539.50;5108057;28;20126;-67
2022/12/23 05:52:44;;;;;;;17.50;13.20;;;;;;;10.64;78.04;100529.81;5113641;28;20494;-68
2022/12/23 05:55:12;;;;;;;15.57;11.32;;;;;;;10.65;77.74;100527.94;5103583;28;20068;-68
2022/12/23 05:57:40;;;;;;;19.42;12.85;;;;;;;10.65;78.10;100522.56;5102793;28;20056;-68
2022/12/23 06:00:09;;;;;;;19.15;12.60;;;;;;;10.64;78.02;100518.25;5094351;28;20087;-68
2022/12/23 06:02:38;;;;;;;16.80;12.65;;;;;;;10.62;77.79;100506.91;5107185;28;20066;-68
2022/12/23 06:05:07;;;;;;;15.95;11.93;;;;;;;10.62;77.65;100501.53;5102289;28;20097;-67
2022/12/23 06:07:35;;;;;;;16.38;11.30;;;;;;;10.62;77.41;100501.53;5103733;28;20146;-68
2022/12/23 06:10:04;;;;;;;15.88;12.35;;;;;;;10.60;77.22;100498.25;5102522;28;20109;-67
2022/12/23 06:12:32;;;;;;;19.33;13.18;;;;;;;10.62;77.52;100491.59;5105243;28;20066;-68
2022/12/23 06:15:00;;;;;;;17.75;12.65;;;;;;;10.61;77.41;100489.97;5097806;28;20047;-67
2022/12/23 06:17:27;;;;;;;20.17;13.30;;;;;;;10.61;77.63;100489.97;5098896;28;20052;-67
2022/12/23 06:19:56;;;;;;;17.50;12.73;;;;;;;10.60;77.34;100479.44;5104626;28;20398;-67
2022/12/23 06:22:24;;;;;;;15.77;11.70;;;;;;;10.59;77.56;100470.56;5097118;28;20083;-66
2022/12/23 06:24:52;;;;;;;15.52;12.20;;;;;;;10.59;77.65;100483.19;5100568;28;20048;-67
2022/12/23 06:27:20;;;;;;;19.70;13.23;;;;;;;10.59;77.70;100483.19;5098488;28;20048;-72
2022/12/23 06:29:48;;;;;;;17.50;12.23;;;;;;;10.59;77.72;100491.25;5103366;28;20039;-73
2022/12/23 06:32:15;;;;;;;18.75;12.85;;;;;;;10.59;77.51;100483.19;5115278;28;20070;-72
2022/12/23 06:34:43;;;;;;;15.48;12.10;;;;;;;10.58;77.28;100485.06;5108072;28;20048;-72
2022/12/23 06:37:12;;;;;;;21.65;13.30;;;;;;;10.58;77.60;100489.59;5100245;28;20044;-68
2022/12/23 06:39:40;;;;;;;21.15;13.55;;;;;;;10.58;77.63;100493.13;5098825;28;20154;-69
2022/12/23 06:42:08;;;;;;;17.73;13.07;;;;;;;10.57;77.57;100496.84;5099854;28;20044;-70
2022/12/23 06:44:35;;;;;;;20.42;12.15;;;;;;;10.58;77.32;100498.50;5102184;28;20511;-71
2022/12/23 06:47:03;;;;;;;17.50;12.55;;;;;;;10.58;77.64;100500.34;5095834;28;20068;-69
2022/12/23 06:49:31;;;;;;;16.75;13.13;;;;;;;10.57;77.35;100512.16;5098438;28;20052;-67
2022/12/23 06:51:59;;;;;;;17.98;12.23;;;;;;;10.56;77.44;100530.16;5098961;28;20445;-70
2022/12/23 06:54:28;;;;;;;16.10;12.60;;;;;;;10.54;77.33;100524.19;5098887;28;20451;-68
2022/12/23 06:56:55;;;;;;;19.17;13.05;;;;;;;10.56;77.31;100527.47;5096777;28;20043;-69
2022/12/23 06:59:23;;;;;;;20.38;13.18;;;;;;;10.56;77.44;100542.75;5102015;28;20078;-68
2022/12/23 07:01:51;;;;;;;17.17;12.60;;;;;;;10.55;77.37;100547.31;5102978;28;20107;-70
2022/12/23 07:04:19;;;;;;;18.60;14.00;;;;;;;10.55;77.56;100547.31;5101106;28;20548;-70
2022/12/23 07:06:47;;;;;;;19.60;12.93;;;;;;;10.55;77.37;100558.06;5100758;28;20051;-70
2022/12/23 07:09:14;;;;;;;21.93;14.73;;;;;;;10.56;77.57;100573.13;4741233;28;10000809;-70
2022/12/23 07:11:43;;;;;;;21.15;14.80;;;;;;;10.56;77.55;100578.50;5099454;28;20115;-67
2022/12/23 07:14:12;;;;;;;21.33;14.60;;;;;;;10.56;77.71;100564.25;5096367;28;20113;-69
2022/12/23 07:16:39;;;;;;;22.83;14.48;;;;;;;10.55;77.51;100541.94;5103173;28;20048;-63
2022/12/23 07:19:07;;;;;;;17.15;12.55;;;;;;;10.54;77.39;100544.84;4393929;28;10000849;-68
2022/12/23 07:21:37;;;;;;;18.45;13.25;;;;;;;10.54;77.13;100544.84;5099862;28;20048;-68
2022/12/23 07:24:06;;;;;;;19.63;14.90;;;;;;;10.56;77.31;100545.44;5095632;28;20175;-68
2022/12/23 07:26:33;;;;;;;20.38;14.05;;;;;;;10.56;77.25;100545.44;5099163;28;20499;-68
2022/12/23 07:29:03;;;;;;;22.17;14.18;;;;;;;10.56;77.16;100545.44;5097717;28;20048;-70
2022/12/23 07:31:31;;;;;;;23.95;15.85;;;;;;;10.57;77.09;100547.09;5096905;28;20044;-66
2022/12/23 07:33:59;;;;;;;25.05;15.60;;;;;;;10.57;77.71;100547.09;5099062;28;20071;-66
2022/12/23 07:36:26;;;;;;;25.30;15.25;;;;;;;10.56;77.71;100540.88;5109527;28;20167;-65
2022/12/23 07:38:55;;;;;;;18.55;14.02;;;;;;;10.55;77.51;100539.25;5097627;28;20108;-66
2022/12/23 07:41:22;;;;;;;22.13;13.80;;;;;;;10.57;77.51;100541.72;5096340;28;20116;-66
2022/12/23 07:43:50;;;;;;;21.30;13.52;;;;;;;10.56;77.50;100537.38;5101897;28;20171;-65
2022/12/23 07:46:19;;;;;;;22.55;12.77;;;;;;;10.56;77.43;100543.59;5102396;28;20286;-67
2022/12/23 07:48:47;;;;;;;21.05;12.15;;;;;;;10.55;77.52;100541.94;5105329;28;20152;-67
2022/12/23 07:51:15;;;;;;;22.58;13.43;;;;;;;10.56;77.47;100546.25;5099562;28;20075;-66
2022/12/23 07:53:42;;;;;;;19.63;12.50;;;;;;;10.56;77.39;100542.75;5102190;28;20054;-66
2022/12/23 07:56:10;;;;;;;23.13;14.77;;;;;;;10.55;77.39;100541.13;5104852;28;20056;-67
2022/12/23 07:58:38;;;;;;;16.30;11.95;;;;;;;10.62;77.13;100549.91;5098190;28;20048;-66
2022/12/23 08:01:07;;;;;;;22.58;13.50;;;;;;;10.74;76.78;100551.56;5101982;28;20075;-66
2022/12/23 08:03:37;;;;;;;16.83;12.15;;;;;;;10.87;76.04;100536.28;5099104;28;20056;-66
2022/12/23 08:06:07;;;;;;;17.27;12.48;;;;;;;11.02;75.22;100515.97;5101580;28;20085;-66
2022/12/23 08:08:35;;;;;;;17.27;10.85;;;;;;;11.18;74.56;100521.72;5096195;28;20108;-67
2022/12/23 08:11:07;;;;;;;15.57;10.65;;;;;;;11.33;73.87;100514.81;5089961;28;20044;-67
2022/12/23 08:13:37;;;;;;;14.73;10.38;;;;;;;11.51;73.02;100507.66;5100586;28;20474;-65
2022/12/23 08:16:06;;;;;;;16.30;10.13;;;;;;;11.65;72.60;100509.03;5101145;28;20054;-67
2022/12/23 08:18:35;;;;;;;15.52;10.45;;;;;;;11.69;72.27;100516.41;5100429;28;20056;-65
2022/12/23 08:21:06;;;;;;;14.27;10.70;;;;;;;11.66;72.21;100522.25;5098667;28;20044;-64
2022/12/23 08:23:34;;;;;;;16.88;10.80;;;;;;;11.61;72.85;100521.34;5098188;28;20052;-64
2022/12/23 08:26:04;;;;;;;16.13;10.25;;;;;;;11.48;73.29;100521.59;5100108;28;20074;-66
2022/12/23 08:28:33;;;;;;;17.17;9.70;;;;;;;11.36;73.51;100526.97;5098537;28;20048;-66
2022/12/23 08:31:06;;;;;;;14.60;10.40;;;;;;;11.28;73.73;100528.16;5102291;28;20100;-67
2022/12/23 08:33:35;;;;;;;15.88;10.35;;;;;;;11.20;74.26;100535.75;5100782;28;20060;-68
2022/12/23 08:36:06;;;;;;;15.43;9.25;;;;;;;11.14;74.39;100531.28;5090719;28;20055;-67
2022/12/23 08:38:35;;;;;;;14.35;9.40;;;;;;;11.11;74.71;100531.75;5094501;28;20574;-66
2022/12/23 08:41:03;;;;;;;17.30;10.18;;;;;;;11.06;74.76;100525.22;5100982;28;20040;-67
2022/12/23 08:43:32;;;;;;;14.50;9.68;;;;;;;11.02;74.98;100515.16;5101190;28;20079;-67
2022/12/23 08:46:03;;;;;;;13.45;9.88;;;;;;;11.00;74.90;100511.88;5091162;28;20054;-67
2022/12/23 08:48:31;;;;;;;15.52;9.75;;;;;;;10.96;74.85;100505.31;5100702;28;20135;-67
2022/12/23 08:51:04;;;;;;;13.07;8.93;;;;;;;10.93;75.14;100501.22;5099915;28;20052;-67
2022/12/23 08:53:33;;;;;;;18.75;9.93;;;;;;;10.91;75.22;100489.91;5090211;28;20085;-67
2022/12/23 08:56:03;;;;;;;17.70;9.45;;;;;;;10.88;75.25;100495.72;5097125;28;20048;-67
2022/12/23 08:58:31;;;;;;;13.32;9.27;;;;;;;10.86;75.28;100503.22;5098778;28;20344;-67
2022/12/23 09:01:03;;;;;;;10.30;7.80;;;;;;;10.85;75.47;100506.94;5100635;28;20477;-68
2022/12/23 09:03:31;;;;;;;13.77;8.75;;;;;;;10.85;75.45;100498.06;5096559;28;20516;-67
2022/12/23 09:05:59;;;;;;;13.23;8.15;;;;;;;10.84;75.51;100489.19;5097729;28;20044;-68
2022/12/23 09:08:28;;;;;;;14.98;7.90;;;;;;;10.82;75.45;100469.78;5104115;28;20059;-67
2022/12/23 09:10:56;;;;;;;12.50;7.57;;;;;;;10.81;75.57;100468.16;5097752;28;20107;-70
2022/12/23 09:13:23;;;;;;;10.30;7.15;;;;;;;10.79;75.67;100462.19;5097708;28;20107;-71
2022/12/23 09:16:01;;;;;;;10.73;7.20;;;;;;;10.77;75.58;100464.28;5101001;28;20101;-70
2022/12/23 09:18:29;;;;;;;11.98;7.10;;;;;;;10.77;75.53;100458.91;5097786;28;20142;-70
2022/12/23 09:20:58;;;;;;;12.00;6.63;;;;;;;10.75;75.62;100447.56;5100102;28;20048;-69
2022/12/23 09:23:26;;;;;;;12.20;6.68;;;;;;;10.75;75.70;100452.94;5091250;28;20507;-70
2022/12/23 09:25:55;;;;;;;10.70;6.82;;;;;;;10.73;75.69;100438.91;5101161;28;20075;-72
2022/12/23 09:28:24;;;;;;;12.50;7.20;;;;;;;10.74;75.63;100443.25;5093529;28;20108;-72
2022/12/23 09:30:52;;;;;;;13.52;7.38;;;;;;;10.73;75.63;100449.66;5095234;28;20048;-71
2022/12/23 09:33:20;;;;;;;12.20;6.57;;;;;;;10.71;75.65;100449.91;5099625;28;20790;-70
2022/12/23 09:35:48;;;;;;;11.45;7.10;;;;;;;10.71;75.65;100444.53;5101041;28;20058;-72
2022/12/23 09:38:16;;;;;;;11.32;6.30;;;;;;;10.71;75.72;100436.47;5101509;28;20075;-71
2022/12/23 09:40:44;;;;;;;10.02;5.97;;;;;;;10.70;75.58;100439.38;5098342;28;20048;-72
2022/12/23 09:43:24;;;;;;;11.18;6.07;;;;;;;10.69;75.75;100427.00;5099658;28;20056;-71
2022/12/23 09:46:04;;;;;;;10.65;5.93;;;;;;;10.69;75.67;100417.06;5099508;28;20079;-72
2022/12/23 09:48:35;;;;;;;8.23;5.43;;;;;;;10.75;75.53;100416.13;5096990;28;20148;-73
2022/12/23 09:51:04;;;;;;;8.70;6.10;;;;;;;10.85;75.06;100407.47;5099415;28;20514;-72
2022/12/23 09:53:46;;;;;;;7.25;5.07;;;;;;;11.03;74.27;100407.34;5097281;28;20523;-70
2022/12/23 09:56:19;;;;;;;8.77;5.80;;;;;;;11.21;73.73;100410.97;5095202;28;20112;-70
2022/12/23 09:58:55;;;;;;;10.02;5.55;;;;;;;11.36;73.26;100430.94;5100170;28;20177;-70
2022/12/23 10:01:31;;;;;;;7.93;5.00;;;;;;;11.52;72.86;100423.19;5099858;28;20125;-71
2022/12/23 10:04:29;;;;;;;10.30;5.82;;;;;;;11.65;71.75;100418.34;5098465;28;20056;-71
2022/12/23 10:07:14;;;;;;;11.15;4.80;;;;;;;11.85;71.20;100426.03;5098408;28;20135;-69
2022/12/23 10:09:46;;;;;;;8.02;4.55;;;;;;;11.98;70.90;100420.34;5098025;28;20639;-70
2022/12/23 10:12:23;;;;;;;7.45;4.43;;;;;;;12.11;70.50;100410.31;5097552;28;20098;-69
2022/12/23 10:15:02;;;;;;;7.85;4.28;;;;;;;12.20;69.88;100398.06;5096474;28;20062;-70
2022/12/23 10:17:34;;;;;;;6.20;4.32;;;;;;;12.30;69.37;100400.94;5097852;28;20052;-70
2022/12/23 10:20:06;;;;;;;7.93;4.10;;;;;;;12.26;69.54;100399.78;5097808;28;20108;-69
2022/12/23 10:22:38;;;;;;;7.28;5.03;;;;;;;12.18;70.10;100394.78;5097725;28;20040;-70
2022/12/23 10:25:14;;;;;;;6.53;3.92;;;;;;;12.02;70.64;100377.59;5085093;28;20062;-71
2022/12/23 10:27:44;;;;;;;7.72;4.50;;;;;;;11.83;70.91;100362.69;5091735;28;20048;-71
2022/12/23 10:30:16;;;;;;;7.50;3.70;;;;;;;11.72;71.58;100356.28;5095254;28;20083;-71
2022/12/23 10:33:08;;;;;;;9.73;4.85;;;;;;;11.61;72.11;100355.28;5086509;28;20036;-68
2022/12/23 10:35:48;;;;;;;7.93;4.20;;;;;;;11.54;72.36;100348.41;5103394;28;20048;-70
2022/12/23 10:38:30;;;;;;;9.25;3.95;;;;;;;11.46;72.76;100341.53;5088839;28;20053;-71
2022/12/23 10:41:05;;;;;;;9.30;5.10;;;;;;;11.41;73.11;100338.75;5093226;28;20048;-71
2022/12/23 10:43:44;;;;;;;4.97;3.65;;;;;;;11.37;72.84;100334.88;5090588;28;20067;-70
2022/12/23 10:46:23;;;;;;;9.73;3.78;;;;;;;11.32;73.21;100329.41;5089438;28;20145;-71
2022/12/23 10:49:02;;;;;;;8.25;3.83;;;;;;;11.28;73.61;100339.84;5089969;28;20052;-71
2022/12/23 10:51:36;;;;;;;8.27;3.80;;;;;;;11.24;73.78;100330.59;5094895;28;21006;-71
2022/12/23 10:54:09;;;;;;;11.48;3.97;;;;;;;11.23;73.90;100322.78;5090225;28;20101;-70
2022/12/23 10:56:37;;;;;;;7.30;3.58;;;;;;;11.20;73.91;100315.19;5086897;28;20455;-71
2022/12/23 10:59:07;;;;;;;5.53;3.33;;;;;;;11.16;74.11;100312.16;5097683;28;20044;-70
2022/12/23 11:01:36;;;;;;;7.80;3.83;;;;;;;11.14;74.30;100300.81;5098397;28;20072;-70
2022/12/23 11:04:08;;;;;;;7.82;3.38;;;;;;;11.15;74.39;100282.81;5098265;28;20131;-71
2022/12/23 11:06:40;;;;;;;8.73;4.65;;;;;;;11.24;73.86;100270.63;5097608;28;20113;-71
2022/12/23 11:09:16;;;;;;;6.00;3.75;;;;;;;11.38;73.71;100271.97;5090163;28;20044;-71
2022/12/23 11:11:59;;;;;;;6.10;3.25;;;;;;;11.55;73.28;100264.72;5087738;28;20512;-69
2022/12/23 11:14:37;;;;;;;5.25;2.95;;;;;;;11.71;72.17;100260.44;5088596;28;20468;-66
2022/12/23 11:17:19;;;;;;;7.10;3.30;;;;;;;11.88;71.77;100241.63;5093186;28;20043;-68
2022/12/23 11:19:47;;;;;;;8.48;3.67;;;;;;;12.04;71.06;100247.00;5092830;28;20079;-67
2022/12/23 11:22:23;;;;;;;6.50;3.00;;;;;;;12.18;70.36;100257.41;5096772;28;20104;-66
2022/12/23 11:24:51;;;;;;;;;;;;;;;12.32;69.89;100256.81;5095847;28;20083;-71
2022/12/23 11:27:19;;;;;;;5.78;3.17;;;;;;;12.29;69.86;100257.31;5099502;28;19920;-71
2022/12/23 11:29:50;;;;;;;7.07;3.20;;;;;;;12.22;69.95;100253.16;5098404;28;20075;-68
2022/12/23 11:32:24;;;;;;;5.15;2.60;;;;;;;12.08;70.31;100233.03;5101268;28;20064;-69
2022/12/23 11:34:53;;;;;;;9.55;3.15;;;;;;;11.95;70.84;100231.50;5099179;28;20102;-68
2022/12/23 11:37:29;;;;;;;5.03;2.72;;;;;;;11.81;71.35;100224.81;5098361;28;20174;-70
2022/12/23 11:39:57;;;;;;;4.35;2.63;;;;;;;11.70;71.89;100219.22;5102893;28;20112;-69
2022/12/23 11:42:29;;;;;;;7.60;2.97;;;;;;;11.63;72.47;100220.47;5102495;28;20108;-69
2022/12/23 11:44:59;;;;;;;9.38;3.67;;;;;;;11.57;72.47;100211.47;5101972;28;20063;-70
2022/12/23 11:47:41;;;;;;;6.72;2.63;;;;;;;11.52;73.06;100206.00;5094685;28;20040;-70
2022/12/23 11:50:27;;;;;;;7.20;3.00;;;;;;;11.46;72.96;100198.91;5099406;28;20058;-67
2022/12/23 11:53:01;;;;;;;6.65;2.60;;;;;;;11.41;73.38;100180.81;5101482;28;20068;-69
2022/12/23 11:55:32;;;;;;;6.80;2.80;;;;;;;11.38;73.52;100180.47;5096314;28;20540;-69
2022/12/23 11:58:01;;;;;;;6.25;2.78;;;;;;;11.34;73.66;100172.09;5101268;28;20115;-69
2022/12/23 12:00:36;;;;;;;7.15;3.55;;;;;;;11.31;73.78;100161.00;5094562;28;20119;-71
2022/12/23 12:03:08;;;;;;;11.70;3.42;;;;;;;11.28;74.06;100159.59;5094161;28;20108;-69